Time;durP1;ratioP1;P1;durP2;ratioP2;P2;SDS_P1;SDS_P2;PMS_P1;PMS_P2;Temp;Humidity;BMP_temperature;BMP_pressure;BME280_temperature;BME280_humidity;BME280_pressure;Samples;Min_cycle;Max_cycle;Signal;HPM_P1;HPM_P2
2022/04/17 00:02:05;;;;;;;2.70;2.40;;;9.50;30.30;;;;;;5028193;28;20284;-71
2022/04/17 00:04:31;;;;;;;3.73;2.20;;;9.60;31.00;;;;;;5027290;28;21037;-71
2022/04/17 00:06:57;;;;;;;3.90;2.47;;;9.60;30.30;;;;;;5031601;28;20447;-70
2022/04/17 00:09:23;;;;;;;3.07;2.67;;;9.50;31.10;;;;;;5035716;28;20432;-71
2022/04/17 00:11:48;;;;;;;3.70;2.20;;;9.50;32.50;;;;;;5047306;28;20565;-71
2022/04/17 00:14:14;;;;;;;3.93;2.43;;;9.50;32.80;;;;;;5034554;28;20637;-70
2022/04/17 00:16:40;;;;;;;2.53;2.20;;;9.40;31.40;;;;;;5029554;28;20225;-71
2022/04/17 00:19:06;;;;;;;3.50;2.50;;;9.40;31.70;;;;;;5029417;28;20184;-71
2022/04/17 00:21:33;;;;;;;3.10;2.40;;;9.40;31.40;;;;;;5027018;28;20552;-72
2022/04/17 00:23:59;;;;;;;3.47;2.53;;;9.40;33.10;;;;;;5027717;28;20416;-71
2022/04/17 00:26:24;;;;;;;2.73;2.20;;;9.40;37.80;;;;;;5029093;28;20420;-71
2022/04/17 00:28:50;;;;;;;3.40;2.63;;;9.40;33.60;;;;;;5028946;28;20432;-71
2022/04/17 00:31:15;;;;;;;3.23;2.70;;;9.40;34.30;;;;;;5028533;28;20212;-71
2022/04/17 00:33:41;;;;;;;3.00;2.27;;;9.30;34.20;;;;;;5029002;28;20186;-72
2022/04/17 00:36:06;;;;;;;4.27;2.50;;;9.30;36.80;;;;;;5028998;28;20230;-71
2022/04/17 00:38:32;;;;;;;3.83;2.63;;;9.30;38.20;;;;;;5037309;28;20181;-72
2022/04/17 00:40:57;;;;;;;2.80;2.43;;;9.30;38.10;;;;;;5034331;28;20170;-71
2022/04/17 00:43:30;;;;;;;3.77;2.63;;;9.20;38.10;;;;;;5027482;28;20201;-72
2022/04/17 00:45:56;;;;;;;5.00;2.30;;;9.30;38.10;;;;;;5028820;28;20201;-72
2022/04/17 00:48:22;;;;;;;3.33;2.43;;;9.20;38.10;;;;;;5028632;28;20424;-72
2022/04/17 00:50:51;;;;;;;2.60;2.40;;;9.20;38.10;;;;;;5028474;28;21034;-72
2022/04/17 00:53:18;;;;;;;6.23;2.53;;;9.20;38.10;;;;;;5027561;28;20228;-72
2022/04/17 00:55:46;;;;;;;2.70;2.43;;;9.20;38.30;;;;;;5028289;28;20527;-72
2022/04/17 00:58:14;;;;;;;3.83;2.83;;;9.10;38.10;;;;;;5028621;28;20424;-71
2022/04/17 01:00:41;;;;;;;3.50;2.47;;;9.10;38.10;;;;;;5027945;28;20417;-71
2022/04/17 01:03:07;;;;;;;2.57;2.37;;;9.00;38.00;;;;;;5020959;28;20413;-72
2022/04/17 01:05:32;;;;;;;2.70;2.50;;;9.00;38.00;;;;;;5027159;28;20440;-72
2022/04/17 01:07:58;;;;;;;2.50;2.30;;;9.00;37.90;;;;;;5030599;28;20554;-71
2022/04/17 01:10:24;;;;;;;3.53;2.77;;;9.00;38.00;;;;;;5040014;28;20173;-72
2022/04/17 01:12:53;;;;;;;2.60;2.40;;;8.90;37.90;;;;;;5034204;28;20205;-71
2022/04/17 01:15:19;;;;;;;2.80;2.40;;;9.00;38.00;;;;;;5027181;28;20181;-71
2022/04/17 01:17:45;;;;;;;3.00;2.40;;;8.80;38.00;;;;;;5027795;28;20425;-72
2022/04/17 01:20:14;;;;;;;3.60;2.80;;;8.80;38.00;;;;;;5028056;28;20420;-71
2022/04/17 01:22:49;;;;;;;4.60;2.50;;;8.90;37.90;;;;;;5027101;28;20725;-71
2022/04/17 01:28:00;;;;;;;4.13;2.60;;;8.70;37.90;;;;;;5021215;28;20498;-72
2022/04/17 01:30:26;;;;;;;3.57;2.60;;;8.70;37.80;;;;;;5027515;28;20450;-71
2022/04/17 01:32:51;;;;;;;3.50;2.30;;;8.70;37.90;;;;;;5027504;28;20548;-70
2022/04/17 01:35:17;;;;;;;2.90;2.50;;;8.60;37.90;;;;;;5027146;28;20197;-72
2022/04/17 01:37:47;;;;;;;3.63;2.70;;;8.70;37.80;;;;;;5027033;28;20271;-71
2022/04/17 01:40:12;;;;;;;2.70;2.30;;;8.60;37.70;;;;;;5027513;28;20278;-72
2022/04/17 01:42:38;;;;;;;3.67;2.50;;;8.70;37.80;;;;;;5027385;28;20510;-72
2022/04/17 01:45:04;;;;;;;2.80;2.60;;;8.60;37.70;;;;;;5027139;28;20177;-72
2022/04/17 01:47:30;;;;;;;3.20;2.57;;;8.60;37.70;;;;;;5027475;28;20236;-72
2022/04/17 01:49:56;;;;;;;3.90;2.70;;;8.60;37.70;;;;;;5027579;28;20608;-73
2022/04/17 01:52:21;;;;;;;2.70;2.40;;;8.60;37.80;;;;;;5025048;28;20460;-72
2022/04/17 01:54:47;;;;;;;3.73;2.40;;;8.70;37.80;;;;;;5027596;28;20704;-70
2022/04/17 01:57:13;;;;;;;4.20;3.10;;;8.50;37.70;;;;;;5027700;28;20501;-70
2022/04/17 01:59:38;;;;;;;4.33;2.70;;;8.60;37.70;;;;;;5027447;28;20185;-70
2022/04/17 02:02:04;;;;;;;3.53;2.50;;;8.40;37.60;;;;;;5025753;28;20272;-70
2022/04/17 02:04:35;;;;;;;3.20;2.70;;;8.40;37.70;;;;;;5027196;28;20185;-72
2022/04/17 02:07:02;;;;;;;2.90;2.40;;;8.40;37.60;;;;;;5025751;28;20244;-72
2022/04/17 02:09:27;;;;;;;3.20;2.53;;;8.70;37.90;;;;;;5034737;28;20879;-72
2022/04/17 02:11:53;;;;;;;3.23;2.93;;;8.40;37.70;;;;;;5044007;28;20447;-72
2022/04/17 02:14:19;;;;;;;4.33;2.77;;;8.30;37.50;;;;;;5031134;28;20577;-72
2022/04/17 02:16:45;;;;;;;4.57;2.50;;;8.30;37.60;;;;;;5026885;28;20510;-71
2022/04/17 02:19:11;;;;;;;4.80;2.73;;;8.20;37.70;;;;;;5027107;28;20624;-70
2022/04/17 02:21:37;;;;;;;3.47;3.17;;;8.10;37.60;;;;;;5026677;28;20448;-71
2022/04/17 02:24:03;;;;;;;3.50;2.60;;;8.00;42.10;;;;;;5026296;28;20173;-72
2022/04/17 02:26:29;;;;;;;3.37;2.77;;;8.00;44.70;;;;;;5026700;28;20197;-72
2022/04/17 02:28:56;;;;;;;2.90;2.63;;;7.90;45.10;;;;;;5027117;28;20724;-72
2022/04/17 02:31:23;;;;;;;4.47;2.90;;;8.00;44.70;;;;;;5026353;28;20715;-72
2022/04/17 02:33:49;;;;;;;2.70;2.50;;;7.80;44.70;;;;;;5027081;28;20433;-71
2022/04/17 02:36:14;;;;;;;3.90;2.67;;;8.20;47.60;;;;;;5025911;28;20531;-72
2022/04/17 02:38:40;;;;;;;3.17;2.50;;;7.80;48.90;;;;;;5029451;28;20425;-72
2022/04/17 02:41:05;;;;;;;4.23;2.50;;;7.70;53.30;;;;;;5040227;28;20189;-71
2022/04/17 02:43:31;;;;;;;4.93;3.00;;;7.80;48.00;;;;;;5034640;28;20240;-72
2022/04/17 02:45:56;;;;;;;3.60;2.67;;;7.60;50.00;;;;;;5026603;28;20277;-71
2022/04/17 02:48:23;;;;;;;3.10;2.80;;;7.60;50.70;;;;;;5027138;28;20170;-72
2022/04/17 02:50:49;;;;;;;4.10;2.80;;;7.60;49.60;;;;;;5024820;28;20243;-72
2022/04/17 02:53:16;;;;;;;5.07;2.97;;;7.60;50.60;;;;;;5025911;28;20420;-72
2022/04/17 02:55:42;;;;;;;3.17;2.87;;;7.60;50.00;;;;;;5027260;28;20170;-72
2022/04/17 02:58:10;;;;;;;3.27;2.70;;;7.60;51.40;;;;;;5025144;28;20633;-70
2022/04/17 03:05:36;;;;;;;3.23;2.50;;;7.60;52.70;;;;;;5026613;28;20895;-72
2022/04/17 03:06:06;;;;;;;3.17;2.83;;;7.30;55.20;;;;;;5018953;28;20755;-71
2022/04/17 03:08:32;;;;;;;3.30;3.00;;;7.30;55.60;;;;;;5027955;28;20891;-72
2022/04/17 03:10:58;;;;;;;3.03;2.57;;;7.70;53.10;;;;;;5035348;28;20429;-71
2022/04/17 03:13:23;;;;;;;5.10;3.10;;;7.30;54.40;;;;;;5041846;28;20526;-71
2022/04/17 03:15:49;;;;;;;3.23;2.97;;;7.30;54.50;;;;;;5026513;28;20170;-72
2022/04/17 03:18:14;;;;;;;2.90;2.50;;;7.40;57.80;;;;;;5025003;28;20166;-71
2022/04/17 03:20:40;;;;;;;3.40;3.07;;;7.60;56.30;;;;;;5026565;28;20240;-72
2022/04/17 03:23:05;;;;;;;3.80;3.27;;;7.30;56.30;;;;;;5024289;28;20178;-71
2022/04/17 03:25:31;;;;;;;4.67;3.23;;;7.80;55.20;;;;;;5024370;28;20243;-71
2022/04/17 03:27:57;;;;;;;3.00;2.70;;;7.40;55.30;;;;;;5026572;28;20245;-72
2022/04/17 03:30:23;;;;;;;8.60;5.73;;;7.40;54.60;;;;;;5029823;28;20581;-72
2022/04/17 03:32:49;;;;;;;4.73;3.50;;;7.40;54.60;;;;;;5028061;28;20464;-71
2022/04/17 03:35:16;;;;;;;9.63;5.00;;;7.40;54.10;;;;;;5030486;28;20165;-72
2022/04/17 03:37:42;;;;;;;4.63;3.40;;;7.40;54.40;;;;;;5028348;28;20448;-72
2022/04/17 03:40:13;;;;;;;3.70;3.10;;;7.50;53.20;;;;;;5029656;28;20427;-71
2022/04/17 03:42:39;;;;;;;3.70;3.27;;;7.40;53.60;;;;;;5029127;28;20839;-72
2022/04/17 03:45:07;;;;;;;4.17;3.07;;;7.40;53.30;;;;;;5028248;28;20595;-72
2022/04/17 03:47:33;;;;;;;4.23;3.50;;;7.40;53.70;;;;;;5028301;28;20479;-71
2022/04/17 03:49:59;;;;;;;5.10;3.50;;;7.40;53.10;;;;;;5029876;28;20409;-72
2022/04/17 03:52:25;;;;;;;4.10;2.77;;;7.90;53.90;;;;;;5029048;28;20517;-72
2022/04/17 03:54:51;;;;;;;5.13;3.30;;;7.80;53.60;;;;;;5029725;28;20203;-72
2022/04/17 03:57:16;;;;;;;3.73;2.80;;;7.70;54.70;;;;;;5029034;28;20436;-72
2022/04/17 03:59:42;;;;;;;4.00;2.87;;;7.70;55.50;;;;;;5029686;28;20176;-72
2022/04/17 04:02:07;;;;;;;2.93;2.63;;;7.30;54.10;;;;;;5029591;28;20633;-71
2022/04/17 04:04:34;;;;;;;3.63;3.33;;;7.40;55.80;;;;;;5030016;28;20174;-72
2022/04/17 04:06:59;;;;;;;5.27;2.77;;;7.30;56.20;;;;;;5028814;28;20193;-72
2022/04/17 04:09:24;;;;;;;3.80;2.80;;;7.30;57.30;;;;;;5037426;28;20447;-71
2022/04/17 04:11:50;;;;;;;3.00;2.70;;;7.30;54.40;;;;;;5047628;28;20632;-72
2022/04/17 04:14:15;;;;;;;4.37;3.50;;;7.30;54.70;;;;;;5034153;28;20660;-72
2022/04/17 04:16:41;;;;;;;3.27;2.87;;;7.30;54.70;;;;;;5029050;28;20236;-72
2022/04/17 04:19:07;;;;;;;3.70;2.90;;;7.60;53.80;;;;;;5029760;28;20304;-72
2022/04/17 04:21:32;;;;;;;6.73;2.93;;;7.30;54.40;;;;;;5026914;28;20194;-72
2022/04/17 04:23:58;;;;;;;5.10;3.97;;;7.40;54.60;;;;;;5029328;28;20596;-72
2022/04/17 04:26:23;;;;;;;4.73;3.57;;;7.30;53.70;;;;;;5028847;28;20201;-72
2022/04/17 04:28:49;;;;;;;3.40;3.10;;;7.50;54.50;;;;;;5029602;28;20193;-72
2022/04/17 04:31:15;;;;;;;4.90;3.27;;;7.30;54.20;;;;;;5027934;28;20676;-72
2022/04/17 04:33:42;;;;;;;3.37;3.07;;;7.60;54.00;;;;;;5028474;28;20178;-72
2022/04/17 04:36:12;;;;;;;5.03;3.30;;;7.30;55.70;;;;;;5027037;28;20866;-73
2022/04/17 04:38:39;;;;;;;3.53;3.20;;;7.30;55.30;;;;;;5035944;28;20468;-72
2022/04/17 04:41:05;;;;;;;4.70;3.20;;;7.30;55.20;;;;;;5040355;28;20415;-72
2022/04/17 04:43:30;;;;;;;6.20;3.27;;;7.30;55.40;;;;;;5036380;28;20508;-71
2022/04/17 04:46:09;;;;;;;3.50;3.20;;;7.70;56.40;;;;;;5028272;28;20189;-72
2022/04/17 04:51:25;;;;;;;6.90;3.20;;;7.30;54.30;;;;;;5027835;28;20819;-72
2022/04/17 04:53:52;;;;;;;4.57;3.10;;;7.30;54.10;;;;;;5028636;28;20416;-72
2022/04/17 04:56:18;;;;;;;4.43;3.10;;;7.30;54.20;;;;;;5028335;28;20416;-72
2022/04/17 04:58:44;;;;;;;4.20;3.10;;;7.60;54.90;;;;;;5029407;28;20801;-71
2022/04/17 05:01:10;;;;;;;3.43;3.10;;;7.40;54.40;;;;;;5026436;28;20413;-71
2022/04/17 05:03:36;;;;;;;5.97;3.20;;;7.40;53.80;;;;;;5025162;28;20506;-72
2022/04/17 05:06:02;;;;;;;3.93;3.40;;;7.50;53.10;;;;;;5027317;28;20476;-72
2022/04/17 05:08:28;;;;;;;4.23;3.30;;;7.50;53.00;;;;;;5028334;28;20221;-72
2022/04/17 05:10:54;;;;;;;5.40;3.33;;;7.90;53.90;;;;;;5041915;28;20454;-71
2022/04/17 05:13:20;;;;;;;4.80;3.37;;;7.70;54.50;;;;;;5039047;28;20170;-72
2022/04/17 05:15:45;;;;;;;4.43;3.20;;;7.60;53.50;;;;;;5026360;28;20850;-72
2022/04/17 05:18:11;;;;;;;3.40;3.10;;;7.60;53.80;;;;;;5028534;28;20532;-72
2022/04/17 05:20:36;;;;;;;5.23;3.30;;;7.70;52.80;;;;;;5026489;28;20579;-71
2022/04/17 05:23:15;;;;;;;4.93;3.30;;;7.70;53.90;;;;;;5027617;28;20231;-71
2022/04/17 05:25:50;;;;;;;5.50;3.53;;;7.70;57.30;;;;;;5027657;28;20315;-72
2022/04/17 05:28:16;;;;;;;3.10;2.80;;;7.70;53.20;;;;;;5028132;28;20481;-72
2022/04/17 05:30:42;;;;;;;3.40;3.10;;;7.80;54.00;;;;;;5027172;28;20845;-72
2022/04/17 05:33:08;;;;;;;5.23;3.23;;;7.80;53.00;;;;;;5027709;28;20464;-72
2022/04/17 05:35:34;;;;;;;5.57;3.50;;;7.90;52.00;;;;;;5027850;28;20455;-72
2022/04/17 05:37:59;;;;;;;2.90;2.60;;;8.10;50.50;;;;;;5026964;28;20272;-71
2022/04/17 05:40:25;;;;;;;4.10;3.10;;;8.20;50.20;;;;;;5027611;28;20420;-72
2022/04/17 05:42:50;;;;;;;4.53;3.00;;;8.20;49.20;;;;;;5026520;28;20174;-72
2022/04/17 05:45:16;;;;;;;5.90;2.87;;;8.20;49.60;;;;;;5027711;28;20247;-72
2022/04/17 05:47:42;;;;;;;6.00;3.20;;;8.20;50.80;;;;;;5027387;28;20798;-72
2022/04/17 05:50:08;;;;;;;5.90;2.80;;;8.20;51.10;;;;;;5027935;28;20245;-72
2022/04/17 05:52:34;;;;;;;4.03;3.50;;;8.30;48.60;;;;;;5026174;28;20305;-72
2022/04/17 05:55:00;;;;;;;6.60;3.10;;;8.40;48.70;;;;;;5026244;28;20624;-71
2022/04/17 05:57:25;;;;;;;6.43;3.50;;;8.60;46.20;;;;;;5027696;28;20440;-71
2022/04/17 05:59:51;;;;;;;3.40;3.10;;;8.70;48.30;;;;;;5025657;28;20447;-72
2022/04/17 06:02:18;;;;;;;4.37;3.17;;;8.70;45.50;;;;;;5025646;28;20169;-71
2022/04/17 06:04:43;;;;;;;5.33;2.80;;;8.70;45.60;;;;;;5027442;28;20177;-71
2022/04/17 06:07:09;;;;;;;3.40;3.10;;;8.90;43.90;;;;;;5027164;28;20455;-72
2022/04/17 06:09:35;;;;;;;4.13;3.73;;;9.00;40.30;;;;;;5035401;28;20264;-72
2022/04/17 06:12:01;;;;;;;4.67;3.20;;;9.40;38.60;;;;;;5046744;28;20200;-72
2022/04/17 06:14:26;;;;;;;5.87;3.47;;;9.30;38.50;;;;;;5027111;28;20508;-72
2022/04/17 06:16:52;;;;;;;8.33;3.30;;;9.50;38.50;;;;;;5027071;28;20197;-72
2022/04/17 06:19:17;;;;;;;4.03;2.83;;;9.60;38.80;;;;;;5027301;28;20257;-72
2022/04/17 06:21:43;;;;;;;3.27;2.70;;;9.80;38.90;;;;;;5025389;28;20197;-71
2022/04/17 06:24:08;;;;;;;3.67;3.13;;;9.90;38.80;;;;;;5027097;28;20173;-72
2022/04/17 06:26:34;;;;;;;3.77;2.93;;;10.00;38.00;;;;;;5026008;28;20271;-71
2022/04/17 06:29:03;;;;;;;3.37;3.07;;;10.30;38.40;;;;;;5027194;28;20551;-71
2022/04/17 06:31:29;;;;;;;4.27;3.30;;;10.40;38.20;;;;;;5026277;28;20524;-72
2022/04/17 06:33:55;;;;;;;4.90;3.17;;;10.60;38.40;;;;;;5026232;28;20471;-72
2022/04/17 06:36:20;;;;;;;9.43;3.20;;;10.70;38.50;;;;;;5026428;28;20432;-72
2022/04/17 06:38:46;;;;;;;4.60;3.10;;;10.80;38.60;;;;;;5030612;28;20253;-72
2022/04/17 06:41:12;;;;;;;3.30;2.87;;;11.00;38.70;;;;;;5026757;28;20181;-73
2022/04/17 06:43:37;;;;;;;3.10;2.70;;;11.20;38.80;;;;;;5026942;28;20497;-73
2022/04/17 06:46:03;;;;;;;5.40;2.83;;;11.30;39.00;;;;;;5025306;28;20497;-73
2022/04/17 06:48:29;;;;;;;3.37;3.00;;;;;;;;;;5022672;28;20257;-73
2022/04/17 06:50:55;;;;;;;4.33;3.17;;;12.10;37.50;;;;;;5023899;28;20524;-73
2022/04/17 06:53:22;;;;;;;4.63;2.80;;;12.30;39.80;;;;;;5026452;28;20173;-72
2022/04/17 06:55:48;;;;;;;3.27;2.73;;;12.40;39.70;;;;;;5026266;28;20716;-73
2022/04/17 06:58:14;;;;;;;5.53;3.27;;;12.40;32.80;;;;;;5025849;28;20503;-73
2022/04/17 07:00:40;;;;;;;4.90;3.00;;;12.40;33.30;;;;;;5033132;28;20743;-73
2022/04/17 07:03:06;;;;;;;4.87;3.20;;;12.50;33.10;;;;;;5020929;28;20409;-72
2022/04/17 07:05:32;;;;;;;3.40;2.90;;;12.60;33.60;;;;;;5028245;28;20425;-72
2022/04/17 07:08:02;;;;;;;3.60;2.70;;;12.60;30.20;;;;;;5032417;28;20197;-72
2022/04/17 07:10:29;;;;;;;5.90;3.43;;;12.60;29.90;;;;;;5036871;28;20872;-73
2022/04/17 07:12:55;;;;;;;2.70;2.50;;;12.60;30.90;;;;;;5028711;28;20488;-72
2022/04/17 07:15:24;;;;;;;2.90;2.57;;;12.70;28.90;;;;;;5030305;28;20513;-72
2022/04/17 07:17:50;;;;;;;3.70;2.83;;;12.70;29.00;;;;;;5030325;28;20277;-72
2022/04/17 07:20:16;;;;;;;2.97;2.50;;;12.80;30.30;;;;;;5030138;28;20989;-73
2022/04/17 07:22:43;;;;;;;3.30;3.00;;;13.00;28.00;;;;;;5028830;28;20428;-73
2022/04/17 07:25:10;;;;;;;4.13;3.07;;;13.10;27.40;;;;;;5030043;28;20643;-73
2022/04/17 07:27:44;;;;;;;4.50;3.10;;;13.20;27.90;;;;;;5029608;28;20601;-72
2022/04/17 07:30:21;;;;;;;3.90;2.83;;;13.20;26.90;;;;;;5025143;28;20404;-73
2022/04/17 07:32:49;;;;;;;4.03;2.60;;;13.30;26.60;;;;;;5028502;28;20555;-73
2022/04/17 07:35:17;;;;;;;3.33;2.63;;;13.80;25.20;;;;;;5030097;28;20466;-73
2022/04/17 07:37:50;;;;;;;4.73;3.07;;;14.10;23.80;;;;;;5027467;28;20535;-73
2022/04/17 07:40:19;;;;;;;3.30;2.60;;;14.80;20.80;;;;;;5029962;28;20424;-73
2022/04/17 07:42:45;;;;;;;3.70;2.53;;;15.90;17.80;;;;;;5029365;28;20417;-73
2022/04/17 07:45:13;;;;;;;4.07;3.57;;;17.40;13.80;;;;;;5028243;28;20885;-73
2022/04/17 07:47:38;;;;;;;4.80;3.20;;;18.80;8.30;;;;;;5028207;28;20444;-73
2022/04/17 07:50:07;;;;;;;4.33;3.00;;;19.40;3.30;;;;;;5028263;28;20412;-73
2022/04/17 07:52:33;;;;;;;4.13;3.37;;;20.20;4.60;;;;;;5029147;28;20490;-74
2022/04/17 07:54:58;;;;;;;4.60;3.50;;;21.10;1.00;;;;;;5029922;28;20443;-73
2022/04/17 07:57:24;;;;;;;4.27;3.10;;;20.90;1.00;;;;;;5029449;28;20953;-73
2022/04/17 07:59:50;;;;;;;7.50;3.30;;;21.30;1.00;;;;;;5027438;28;20204;-74
2022/04/17 08:02:22;;;;;;;5.10;3.43;;;21.90;1.00;;;;;;5029421;28;20595;-74
2022/04/17 08:04:51;;;;;;;6.03;3.87;;;21.90;1.00;;;;;;5029651;28;20470;-73
2022/04/17 08:07:21;;;;;;;4.63;3.33;;;22.20;1.00;;;;;;5029526;28;20509;-74
2022/04/17 08:09:46;;;;;;;4.53;3.10;;;22.60;1.00;;;;;;5031625;28;20426;-74
2022/04/17 08:12:13;;;;;;;8.10;3.20;;;22.80;1.00;;;;;;5044753;28;20197;-74
2022/04/17 08:14:38;;;;;;;5.57;3.63;;;22.90;1.00;;;;;;5028367;28;20180;-74
2022/04/17 08:17:04;;;;;;;6.23;4.03;;;23.00;1.00;;;;;;5029169;28;20193;-74
2022/04/17 08:19:31;;;;;;;3.87;3.00;;;22.70;1.00;;;;;;5030557;28;20717;-75
2022/04/17 08:22:00;;;;;;;4.50;3.10;;;23.10;1.00;;;;;;5026497;28;20238;-74
2022/04/17 08:24:25;;;;;;;4.40;2.80;;;23.40;1.00;;;;;;5027888;28;20174;-74
2022/04/17 08:26:52;;;;;;;5.20;3.30;;;23.70;1.00;;;;;;5028512;28;20244;-74
2022/04/17 08:29:19;;;;;;;5.90;3.10;;;23.10;1.00;;;;;;5028400;28;20180;-74
2022/04/17 08:31:44;;;;;;;4.00;2.90;;;22.80;1.00;;;;;;5028310;28;21120;-74
2022/04/17 08:34:10;;;;;;;4.50;3.10;;;23.10;1.00;;;;;;5029449;28;20288;-74
2022/04/17 08:36:36;;;;;;;7.10;3.30;;;23.80;1.00;;;;;;5027193;28;20197;-74
2022/04/17 08:39:01;;;;;;;3.70;3.07;;;24.00;1.00;;;;;;5036458;28;20324;-74
2022/04/17 08:41:27;;;;;;;4.30;3.03;;;24.30;1.00;;;;;;5043870;28;20188;-74
2022/04/17 08:43:54;;;;;;;4.37;2.77;;;24.10;1.00;;;;;;5029564;28;20185;-74
2022/04/17 08:46:20;;;;;;;4.07;2.70;;;24.20;1.00;;;;;;5028782;28;20188;-73
2022/04/17 08:48:45;;;;;;;5.70;3.20;;;24.50;1.00;;;;;;5028800;28;20181;-74
2022/04/17 08:51:11;;;;;;;6.00;2.80;;;24.90;1.00;;;;;;5025928;28;20608;-74
2022/04/17 08:53:39;;;;;;;4.67;3.00;;;25.20;1.00;;;;;;5028151;28;20599;-74
2022/04/17 08:56:05;;;;;;;3.60;2.93;;;25.60;1.00;;;;;;5028033;28;20212;-74
2022/04/17 08:58:31;;;;;;;5.00;3.10;;;25.80;1.00;;;;;;5027559;28;20605;-74
2022/04/17 09:00:56;;;;;;;5.10;3.10;;;25.50;1.00;;;;;;5027417;28;20567;-74
2022/04/17 09:03:23;;;;;;;3.92;2.75;;;25.30;1.00;;;;;;5026764;28;20181;-73
2022/04/17 09:05:49;;;;;;;4.87;2.73;;;24.80;1.00;;;;;;5027363;28;20559;-74
2022/04/17 09:08:21;;;;;;;6.50;3.23;;;24.50;1.00;;;;;;5028759;28;20185;-74
2022/04/17 09:10:59;;;;;;;5.57;2.90;;;24.90;1.00;;;;;;5039581;28;20172;-74
2022/04/17 09:13:29;;;;;;;3.80;2.80;;;25.90;1.00;;;;;;5021268;28;20373;-74
2022/04/17 09:15:55;;;;;;;4.82;2.90;;;27.20;1.00;;;;;;5027813;28;20256;-74
2022/04/17 09:18:21;;;;;;;4.70;2.80;;;27.10;1.00;;;;;;5027992;28;20165;-74
2022/04/17 09:20:47;;;;;;;6.40;2.42;;;27.30;1.00;;;;;;5027709;28;20189;-74
2022/04/17 09:23:13;;;;;;;4.32;3.33;;;27.40;1.00;;;;;;5027385;28;20264;-74
2022/04/17 09:25:38;;;;;;;3.72;2.85;;;27.40;1.00;;;;;;5027824;28;20232;-74
2022/04/17 09:28:06;;;;;;;6.22;3.65;;;27.40;1.00;;;;;;5027661;28;20177;-73
2022/04/17 09:30:39;;;;;;;4.20;3.25;;;27.50;1.00;;;;;;5027600;28;20169;-73
2022/04/17 09:33:14;;;;;;;4.38;2.95;;;27.60;1.00;;;;;;5028228;28;20205;-73
2022/04/17 09:35:52;;;;;;;3.95;2.60;;;27.70;1.00;;;;;;5027609;28;20251;-73
2022/04/17 09:38:18;;;;;;;4.88;3.42;;;28.00;1.00;;;;;;5027428;28;20180;-73
2022/04/17 09:40:48;;;;;;;5.05;2.63;;;27.70;1.00;;;;;;5026421;28;20173;-73
2022/04/17 09:43:16;;;;;;;3.72;2.80;;;28.60;1.00;;;;;;5027920;28;20180;-73
2022/04/17 09:46:00;;;;;;;3.85;2.97;;;28.80;1.00;;;;;;5027387;28;20181;-73
2022/04/17 09:48:30;;;;;;;6.88;2.78;;;28.20;1.00;;;;;;5026485;28;20349;-73
2022/04/17 09:50:56;;;;;;;5.63;3.30;;;28.20;1.00;;;;;;5026584;28;20184;-73
2022/04/17 09:53:36;;;;;;;3.85;3.30;;;29.00;1.00;;;;;;5026752;28;20545;-73
2022/04/17 09:56:11;;;;;;;3.30;2.53;;;30.30;1.00;;;;;;5027282;28;20529;-73
2022/04/17 09:58:48;;;;;;;3.85;2.60;;;30.50;1.00;;;;;;5028465;28;20683;-73
2022/04/17 10:01:16;;;;;;;3.80;2.75;;;31.00;1.00;;;;;;5026691;28;20196;-73
2022/04/17 10:03:42;;;;;;;4.72;3.17;;;31.20;1.00;;;;;;5027222;28;20176;-73
2022/04/17 10:06:11;;;;;;;4.78;2.45;;;30.20;1.00;;;;;;5027608;28;20331;-73
2022/04/17 10:08:38;;;;;;;3.83;2.50;;;30.80;1.00;;;;;;5028414;28;20267;-73
2022/04/17 10:11:04;;;;;;;4.32;2.80;;;31.60;1.00;;;;;;5037587;28;20175;-72
2022/04/17 10:13:31;;;;;;;4.10;2.83;;;32.40;1.00;;;;;;5022390;28;20181;-74
2022/04/17 10:15:59;;;;;;;5.22;4.10;;;32.10;1.00;;;;;;5025160;28;20227;-73
2022/04/17 10:18:31;;;;;;;4.30;3.03;;;31.30;1.00;;;;;;5025869;28;20173;-73
2022/04/17 10:20:57;;;;;;;4.72;2.65;;;31.60;1.00;;;;;;5023707;28;20192;-73
2022/04/17 10:23:26;;;;;;;3.92;2.70;;;31.60;1.00;;;;;;5027186;28;20544;-73
2022/04/17 10:25:56;;;;;;;6.03;2.92;;;30.50;1.00;;;;;;5039862;28;20246;-73
2022/04/17 10:28:23;;;;;;;4.80;2.72;;;29.90;1.00;;;;;;5035457;28;20265;-73
2022/04/17 10:31:04;;;;;;;4.40;3.08;;;30.10;1.00;;;;;;5026137;28;20177;-72
2022/04/17 10:33:58;;;;;;;4.13;3.00;;;30.20;1.00;;;;;;5025975;28;20255;-73
2022/04/17 10:36:54;;;;;;;3.95;2.80;;;30.70;1.00;;;;;;5021780;28;20196;-73
2022/04/17 10:39:33;;;;;;;5.60;3.05;;;30.30;1.00;;;;;;5035960;28;20559;-73
2022/04/17 10:41:59;;;;;;;3.97;2.80;;;30.30;1.00;;;;;;5030841;28;20173;-73
2022/04/17 10:44:30;;;;;;;3.90;2.85;;;30.10;1.00;;;;;;5031513;28;20200;-73
2022/04/17 10:46:56;;;;;;;5.63;2.83;;;30.20;1.00;;;;;;5031306;28;20201;-73
2022/04/17 10:49:28;;;;;;;5.00;2.85;;;30.10;1.00;;;;;;5031235;28;20203;-73
2022/04/17 10:51:56;;;;;;;6.63;3.13;;;30.30;1.00;;;;;;5029320;28;20605;-72
2022/04/17 10:54:23;;;;;;;3.75;2.60;;;30.10;1.00;;;;;;5031071;28;20372;-72
2022/04/17 10:56:54;;;;;;;3.50;2.40;;;31.30;1.00;;;;;;5031086;28;20196;-73
2022/04/17 10:59:33;;;;;;;3.92;2.70;;;32.00;1.00;;;;;;5029611;28;20277;-72
2022/04/17 11:02:07;;;;;;;4.85;2.75;;;31.60;1.00;;;;;;5028982;28;20173;-72
2022/04/17 11:04:55;;;;;;;4.00;3.03;;;31.90;1.00;;;;;;5027039;28;20176;-73
2022/04/17 11:07:21;;;;;;;3.55;2.53;;;31.80;1.00;;;;;;5026508;28;20574;-73
2022/04/17 11:09:47;;;;;;;6.15;3.03;;;31.80;1.00;;;;;;5040226;28;20267;-73
2022/04/17 11:12:18;;;;;;;4.10;2.78;;;31.30;1.00;;;;;;5029969;28;20211;-73
2022/04/17 11:15:02;;;;;;;5.18;3.15;;;30.80;1.00;;;;;;5030528;28;20239;-73
2022/04/17 11:17:31;;;;;;;4.05;2.72;;;29.90;1.00;;;;;;5029646;28;20255;-73
2022/04/17 11:20:00;;;;;;;3.50;2.70;;;29.90;1.00;;;;;;5030727;28;20183;-73
2022/04/17 11:22:28;;;;;;;4.03;3.10;;;30.20;1.00;;;;;;5029935;28;20200;-73
2022/04/17 11:24:57;;;;;;;3.80;2.63;;;30.90;1.00;;;;;;5030288;28;20247;-73
2022/04/17 11:27:46;;;;;;;4.03;3.05;;;31.80;1.00;;;;;;5030271;28;20216;-73
2022/04/17 11:30:14;;;;;;;6.72;3.00;;;31.80;1.00;;;;;;5029691;28;20178;-73
2022/04/17 11:32:40;;;;;;;3.70;3.10;;;30.80;1.00;;;;;;5030398;28;20246;-73
2022/04/17 11:35:11;;;;;;;5.13;2.72;;;30.00;1.00;;;;;;5028974;28;20177;-73
2022/04/17 11:37:37;;;;;;;3.60;2.40;;;30.50;1.00;;;;;;5028158;28;21106;-73
2022/04/17 11:40:15;;;;;;;6.35;3.00;;;31.80;1.00;;;;;;5029852;28;20177;-72
2022/04/17 11:42:42;;;;;;;3.72;2.60;;;33.30;1.00;;;;;;5029389;28;20260;-73
2022/04/17 11:45:09;;;;;;;6.30;2.70;;;34.00;1.00;;;;;;5028645;28;20606;-73
2022/04/17 11:47:39;;;;;;;4.13;2.60;;;34.40;1.00;;;;;;5030349;28;20189;-73
2022/04/17 11:50:11;;;;;;;3.88;2.80;;;35.40;1.00;;;;;;5029114;28;20396;-74
2022/04/17 11:52:37;;;;;;;4.03;3.20;;;35.10;1.00;;;;;;5029403;28;20214;-74
2022/04/17 11:55:07;;;;;;;3.78;2.70;;;33.80;1.00;;;;;;5030144;28;20175;-75
2022/04/17 11:57:32;;;;;;;3.15;2.28;;;32.90;1.00;;;;;;5029517;28;20283;-74
2022/04/17 11:59:58;;;;;;;3.92;2.70;;;32.70;1.00;;;;;;5029758;28;20249;-73
2022/04/17 12:02:29;;;;;;;7.32;2.92;;;32.30;1.00;;;;;;5029680;28;20235;-73
2022/04/17 12:05:06;;;;;;;7.20;2.95;;;31.70;1.00;;;;;;5029816;28;20192;-73
2022/04/17 12:07:32;;;;;;;4.05;2.83;;;31.10;1.00;;;;;;5030281;28;20196;-73
2022/04/17 12:10:07;;;;;;;6.47;3.28;;;31.90;1.00;;;;;;5041969;28;20176;-73
2022/04/17 12:12:45;;;;;;;4.43;2.90;;;32.30;1.00;;;;;;5048565;28;20202;-73
2022/04/17 12:15:12;;;;;;;4.22;3.08;;;32.60;1.00;;;;;;5023356;28;20158;-73
2022/04/17 12:17:38;;;;;;;5.13;3.03;;;33.10;1.00;;;;;;5030257;28;20558;-73
2022/04/17 12:20:14;;;;;;;4.22;3.15;;;33.00;1.00;;;;;;5030648;28;20192;-73
2022/04/17 12:22:41;;;;;;;3.40;2.38;;;33.10;1.00;;;;;;5028522;28;20196;-73
2022/04/17 12:25:19;;;;;;;8.55;2.92;;;33.00;1.00;;;;;;5030127;28;20185;-73
2022/04/17 12:27:49;;;;;;;3.63;2.70;;;32.10;1.00;;;;;;5030048;28;20189;-74
2022/04/17 12:30:19;;;;;;;3.08;2.47;;;32.00;1.00;;;;;;5023334;28;20173;-73
2022/04/17 12:32:46;;;;;;;4.65;2.50;;;31.90;1.00;;;;;;5034203;28;20260;-72
2022/04/17 12:35:14;;;;;;;4.00;2.83;;;32.10;1.00;;;;;;5043118;28;20180;-73
2022/04/17 12:37:40;;;;;;;2.90;2.40;;;32.80;1.00;;;;;;5045642;28;20194;-73
2022/04/17 12:40:09;;;;;;;4.88;2.70;;;34.00;1.00;;;;;;5037163;28;20181;-73
2022/04/17 12:42:35;;;;;;;4.75;3.08;;;34.10;1.00;;;;;;5029199;28;20184;-74
2022/04/17 12:45:00;;;;;;;3.63;2.50;;;32.80;1.00;;;;;;5029612;28;20172;-73
2022/04/17 12:47:26;;;;;;;4.18;2.60;;;32.70;1.00;;;;;;5030222;28;20197;-73
2022/04/17 12:50:00;;;;;;;3.78;2.90;;;33.10;1.00;;;;;;5029569;28;20184;-73
2022/04/17 12:52:26;;;;;;;3.20;2.45;;;33.10;1.00;;;;;;5029146;28;20219;-73
2022/04/17 12:54:53;;;;;;;3.70;2.65;;;33.80;1.00;;;;;;5030021;28;20656;-73
2022/04/17 12:57:21;;;;;;;3.47;2.60;;;33.50;1.00;;;;;;5029049;28;20254;-73
2022/04/17 12:59:51;;;;;;;3.53;2.60;;;34.40;1.00;;;;;;5029274;28;20255;-73
2022/04/17 13:02:27;;;;;;;3.53;2.30;;;35.10;1.00;;;;;;5023378;28;20177;-73
2022/04/17 13:04:54;;;;;;;6.88;2.60;;;34.40;1.00;;;;;;5026662;28;20208;-73
2022/04/17 13:07:20;;;;;;;3.40;2.50;;;34.40;1.00;;;;;;5029049;28;20259;-73